Time;durP1;ratioP1;P1;durP2;ratioP2;P2;SDS_P1;SDS_P2;PMS_P1;PMS_P2;Temp;Humidity;BMP_temperature;BMP_pressure;BME280_temperature;BME280_humidity;BME280_pressure;Samples;Min_cycle;Max_cycle;Signal;HPM_P1;HPM_P2
2023/03/17 00:00:58;;;;;;;7.00;4.10;;;;;;;7.58;69.88;100762.22;4887399;29;20036;-95
2023/03/17 00:03:30;;;;;;;6.25;3.70;;;;;;;7.58;69.76;100775.19;4861643;29;20028;-95
2023/03/17 00:05:57;;;;;;;5.85;3.45;;;;;;;7.56;69.94;100779.47;4873285;29;20463;-95
2023/03/17 00:08:28;;;;;;;7.65;3.83;;;;;;;7.56;70.15;100782.06;4871783;29;20112;-95
2023/03/17 00:10:54;;;;;;;6.22;4.10;;;;;;;7.56;69.95;100786.34;4872066;29;20059;-95
2023/03/17 00:13:23;;;;;;;7.40;4.07;;;;;;;7.55;69.94;100782.00;4877580;29;20017;-95
2023/03/17 00:15:59;;;;;;;9.43;4.25;;;;;;;7.56;69.66;100786.34;4876709;29;20061;-95
2023/03/17 00:18:24;;;;;;;7.93;4.15;;;;;;;7.55;69.70;100775.09;4892559;29;20063;-94
2023/03/17 00:20:53;;;;;;;6.88;4.05;;;;;;;7.55;69.57;100774.22;4874755;29;20069;-94
2023/03/17 00:23:27;;;;;;;7.35;3.72;;;;;;;7.53;69.63;100755.13;4869920;29;20071;-93
2023/03/17 00:25:58;;;;;;;7.80;4.55;;;;;;;7.46;70.18;100748.84;4876854;29;20036;-93
2023/03/17 00:28:32;;;;;;;6.85;4.10;;;;;;;7.40;70.44;100735.66;4868632;29;20029;-94
2023/03/17 00:31:05;;;;;;;7.60;3.90;;;;;;;7.36;70.55;100747.66;4872992;29;20044;-94
2023/03/17 00:33:33;;;;;;;6.28;3.70;;;;;;;7.33;70.80;100732.00;4892792;29;20029;-94
2023/03/17 00:36:00;;;;;;;6.53;3.83;;;;;;;7.29;70.93;100732.72;4875326;29;20616;-94
2023/03/17 00:38:31;;;;;;;7.22;3.70;;;;;;;7.24;70.95;100739.44;4866549;29;20037;-94
2023/03/17 00:41:00;;;;;;;6.32;3.88;;;;;;;7.22;71.31;100743.69;4871655;29;20487;-93
2023/03/17 00:43:28;;;;;;;7.80;3.75;;;;;;;7.22;71.29;100738.50;4875920;29;20039;-93
2023/03/17 00:46:00;;;;;;;7.35;3.90;;;;;;;7.17;71.48;100735.75;4893918;29;20032;-93
2023/03/17 00:48:28;;;;;;;6.50;3.95;;;;;;;7.16;71.66;100738.28;4876362;29;20055;-93
2023/03/17 00:50:54;;;;;;;6.95;3.75;;;;;;;7.17;71.52;100730.56;4877001;29;20088;-93
2023/03/17 00:53:23;;;;;;;6.93;3.67;;;;;;;7.16;71.79;100739.16;4875751;29;20024;-93
2023/03/17 00:55:55;;;;;;;6.20;3.78;;;;;;;7.16;71.89;100735.69;4867476;29;20123;-94
2023/03/17 00:58:31;;;;;;;5.85;3.30;;;;;;;7.13;71.68;100729.56;4865729;29;20064;-93
2023/03/17 01:00:57;;;;;;;6.60;3.53;;;;;;;7.12;71.78;100732.09;4881738;29;20063;-94
2023/03/17 01:03:25;;;;;;;6.50;3.72;;;;;;;7.16;71.76;100733.13;4883355;29;20574;-93
2023/03/17 01:05:53;;;;;;;7.78;3.67;;;;;;;7.16;71.53;100735.69;4866710;29;20570;-94
2023/03/17 01:08:20;;;;;;;8.15;3.65;;;;;;;7.13;71.99;100726.97;4867115;29;20140;-94
2023/03/17 01:10:58;;;;;;;6.60;4.00;;;;;;;7.11;71.97;100733.81;4866919;29;20035;-93
2023/03/17 01:13:24;;;;;;;8.80;3.78;;;;;;;7.09;71.49;100730.28;4866326;29;20020;-94
2023/03/17 01:15:51;;;;;;;7.60;3.75;;;;;;;7.09;71.81;100738.06;4866535;29;20056;-94
2023/03/17 01:18:19;;;;;;;7.32;3.70;;;;;;;7.05;72.13;100733.59;4861895;29;20041;-93
2023/03/17 01:20:57;;;;;;;6.28;3.80;;;;;;;7.00;72.03;100718.72;4878599;29;20413;-94
2023/03/17 01:23:22;;;;;;;5.82;3.42;;;;;;;6.97;72.35;100722.09;4865341;29;20028;-94
2023/03/17 01:25:53;;;;;;;6.47;3.72;;;;;;;6.92;72.21;100715.84;4882009;29;20523;-94
2023/03/17 01:28:19;;;;;;;5.93;3.70;;;;;;;6.88;72.07;100713.97;4880025;29;20032;-94
2023/03/17 01:30:52;;;;;;;9.32;4.18;;;;;;;6.84;72.50;100714.69;4862606;29;20876;-92
2023/03/17 01:33:21;;;;;;;7.57;4.05;;;;;;;6.79;72.36;100712.81;4864374;29;20032;-93
2023/03/17 01:35:54;;;;;;;5.90;3.80;;;;;;;6.77;72.83;100714.44;4882430;29;20044;-94
2023/03/17 01:38:21;;;;;;;7.82;4.15;;;;;;;6.76;72.66;100706.63;4880529;29;20429;-94
2023/03/17 01:40:50;;;;;;;7.40;3.80;;;;;;;6.74;72.80;100709.16;4866429;29;20029;-93
2023/03/17 01:43:28;;;;;;;6.63;3.90;;;;;;;6.76;72.53;100702.34;4864375;29;20032;-94
2023/03/17 01:46:11;;;;;;;6.38;3.65;;;;;;;6.75;72.60;100703.16;4866574;29;20525;-93
2023/03/17 01:48:59;;;;;;;6.38;3.88;;;;;;;6.69;73.05;100704.63;4864956;29;20864;-94
2023/03/17 01:51:46;;;;;;;6.32;3.65;;;;;;;6.69;72.71;100699.47;4832813;29;20036;-93
2023/03/17 01:54:21;;;;;;;7.43;4.15;;;;;;;6.64;72.89;100698.44;4867451;29;20052;-94
2023/03/17 01:56:51;;;;;;;8.18;4.25;;;;;;;6.64;73.29;100703.59;4875235;29;20054;-94
2023/03/17 01:59:22;;;;;;;8.68;3.97;;;;;;;6.57;72.99;100690.41;4889043;29;20032;-94
2023/03/17 02:01:51;;;;;;;8.20;4.45;;;;;;;6.57;73.34;100689.53;4888549;29;20044;-94
2023/03/17 02:04:25;;;;;;;9.00;4.28;;;;;;;6.53;73.21;100680.78;4873925;29;20064;-94
2023/03/17 02:07:01;;;;;;;7.93;4.10;;;;;;;6.51;73.12;100681.56;4889444;29;20040;-94
2023/03/17 02:09:36;;;;;;;7.88;3.88;;;;;;;6.48;73.93;100681.44;4871865;29;20102;-94
2023/03/17 02:12:04;;;;;;;8.15;4.50;;;;;;;6.46;73.70;100673.63;4890452;29;20032;-93
2023/03/17 02:14:30;;;;;;;7.85;3.92;;;;;;;6.44;73.40;100665.81;4870071;29;20025;-93
2023/03/17 02:16:56;;;;;;;9.18;4.05;;;;;;;6.43;73.60;100669.19;4885975;29;20600;-94
2023/03/17 02:19:21;;;;;;;7.63;3.95;;;;;;;6.40;73.58;100671.69;4873157;29;20208;-93
2023/03/17 02:21:58;;;;;;;7.95;3.92;;;;;;;6.39;73.54;100664.72;4864865;29;20548;-93
2023/03/17 02:24:46;;;;;;;7.80;4.07;;;;;;;6.43;73.60;100671.78;4862784;29;20051;-93
2023/03/17 02:27:40;;;;;;;7.13;4.15;;;;;;;6.46;73.96;100676.22;4866720;29;20044;-94
2023/03/17 02:30:09;;;;;;;8.02;4.40;;;;;;;6.44;74.00;100664.91;4873852;29;20126;-93
2023/03/17 02:32:39;;;;;;;6.72;4.18;;;;;;;6.43;74.05;100661.44;4886914;29;20491;-93
2023/03/17 02:35:09;;;;;;;6.25;3.70;;;;;;;6.42;74.57;100651.03;4878900;29;20039;-94
2023/03/17 02:37:42;;;;;;;7.97;3.75;;;;;;;6.40;74.31;100650.06;4886023;29;20073;-93
2023/03/17 02:40:12;;;;;;;7.82;4.00;;;;;;;6.41;74.27;100655.31;4878101;29;20036;-94
2023/03/17 02:42:41;;;;;;;7.00;3.67;;;;;;;6.40;74.43;100645.81;4871193;29;20119;-94
2023/03/17 02:45:13;;;;;;;6.15;3.47;;;;;;;6.39;74.52;100641.44;4871853;29;20078;-93
2023/03/17 02:47:51;;;;;;;7.28;3.60;;;;;;;6.40;74.10;100645.81;4873673;29;20040;-94
2023/03/17 02:50:22;;;;;;;8.20;3.78;;;;;;;6.40;73.86;100650.97;4884691;29;20040;-93
2023/03/17 02:52:59;;;;;;;6.47;3.63;;;;;;;6.38;74.26;100642.25;4873820;29;20028;-93
2023/03/17 02:55:30;;;;;;;7.72;4.18;;;;;;;6.40;74.62;100643.22;4871199;29;20040;-93
2023/03/17 02:57:57;;;;;;;7.00;3.55;;;;;;;6.37;74.22;100642.19;4873311;29;20048;-93
2023/03/17 03:00:23;;;;;;;8.43;3.83;;;;;;;6.34;74.58;100634.31;4885213;29;20032;-94
2023/03/17 03:02:50;;;;;;;7.80;4.20;;;;;;;6.33;74.44;100632.56;4887920;29;20072;-93
2023/03/17 03:05:16;;;;;;;7.55;3.58;;;;;;;6.34;73.84;100640.38;4873286;29;20150;-93
2023/03/17 03:07:47;;;;;;;5.63;3.35;;;;;;;6.34;73.92;100645.56;4873312;29;20119;-93
2023/03/17 03:10:12;;;;;;;6.97;3.72;;;;;;;6.37;73.51;100650.88;4873467;29;20033;-94
2023/03/17 03:12:39;;;;;;;7.97;3.72;;;;;;;6.38;74.23;100651.75;4873087;29;20028;-93
2023/03/17 03:15:05;;;;;;;7.32;3.88;;;;;;;6.38;74.12;100643.97;4864820;29;20028;-93
2023/03/17 03:17:36;;;;;;;7.68;4.05;;;;;;;6.39;73.84;100643.16;4872169;29;20131;-93
2023/03/17 03:20:03;;;;;;;8.98;4.18;;;;;;;6.37;73.38;100640.53;4889448;29;20036;-93
2023/03/17 03:22:28;;;;;;;8.27;3.78;;;;;;;6.38;73.67;100646.56;4889184;29;20037;-92
2023/03/17 03:24:56;;;;;;;5.60;3.50;;;;;;;6.40;73.96;100647.50;4889657;29;20029;-93
2023/03/17 03:27:21;;;;;;;9.20;4.07;;;;;;;6.39;73.40;100654.38;4873744;29;20474;-93
2023/03/17 03:29:47;;;;;;;8.77;4.15;;;;;;;6.38;73.65;100650.03;4888736;29;20035;-93
2023/03/17 03:32:12;;;;;;;10.82;4.28;;;;;;;6.39;73.23;100648.34;4870393;29;20043;-93
2023/03/17 03:34:41;;;;;;;9.23;4.65;;;;;;;6.40;73.45;100650.97;4873877;29;20025;-93
2023/03/17 03:37:16;;;;;;;9.55;4.55;;;;;;;6.38;74.06;100639.66;4888849;29;20065;-93
2023/03/17 03:39:51;;;;;;;10.75;5.20;;;;;;;6.38;74.04;100652.59;4873461;29;20111;-93
2023/03/17 03:42:16;;;;;;;8.38;4.32;;;;;;;6.38;73.14;100665.53;4871795;29;20030;-94
2023/03/17 03:44:45;;;;;;;9.43;4.50;;;;;;;6.36;73.98;100659.44;4871624;29;20668;-93
2023/03/17 03:47:10;;;;;;;8.30;3.97;;;;;;;6.34;73.71;100660.19;4868011;29;20394;-93
2023/03/17 03:49:38;;;;;;;9.10;4.60;;;;;;;6.33;73.41;100674.84;4887198;29;20052;-93
2023/03/17 03:52:05;;;;;;;11.02;4.38;;;;;;;6.31;73.63;100670.44;4869602;29;20039;-93
2023/03/17 03:54:30;;;;;;;11.20;5.13;;;;;;;6.31;73.41;100671.31;4872012;29;20772;-93
2023/03/17 03:56:56;;;;;;;9.23;5.10;;;;;;;6.28;73.66;100658.25;4873660;29;20064;-93
2023/03/17 03:59:22;;;;;;;10.10;5.00;;;;;;;6.30;72.94;100669.56;4873052;29;20490;-94
2023/03/17 04:01:47;;;;;;;7.97;4.25;;;;;;;6.31;73.52;100676.50;4872974;29;20068;-94
2023/03/17 04:04:13;;;;;;;8.85;4.63;;;;;;;6.31;73.44;100676.50;4868667;29;20502;-93
2023/03/17 04:06:41;;;;;;;10.82;4.68;;;;;;;6.32;72.91;100680.84;4888835;29;20045;-93
2023/03/17 04:09:09;;;;;;;10.55;4.55;;;;;;;6.30;72.79;100674.75;4882440;29;20029;-93
2023/03/17 04:11:35;;;;;;;10.90;4.50;;;;;;;6.32;73.29;100682.56;4871265;29;20526;-93
2023/03/17 04:14:00;;;;;;;9.15;4.40;;;;;;;6.29;73.83;100680.75;4870150;29;20020;-93
2023/03/17 04:16:28;;;;;;;9.18;4.38;;;;;;;6.26;73.39;100675.44;4863522;29;20498;-94
2023/03/17 04:18:54;;;;;;;8.82;4.90;;;;;;;6.27;73.24;100677.19;4880526;29;20125;-94
2023/03/17 04:21:22;;;;;;;10.25;5.20;;;;;;;6.26;73.31;100672.88;4866565;29;20085;-95
2023/03/17 04:23:47;;;;;;;8.45;5.00;;;;;;;6.24;73.50;100669.31;4883808;29;20036;-95
2023/03/17 04:26:13;;;;;;;9.93;4.93;;;;;;;6.26;73.14;100672.88;4869065;29;20856;-94
2023/03/17 04:28:43;;;;;;;7.97;4.50;;;;;;;6.27;72.97;100679.78;4885283;29;20398;-94
2023/03/17 04:31:11;;;;;;;8.10;4.15;;;;;;;6.28;73.40;100678.97;4868452;29;20127;-95
2023/03/17 04:33:39;;;;;;;7.28;4.07;;;;;;;6.27;73.30;100674.59;4873730;29;20020;-95
2023/03/17 04:36:13;;;;;;;8.17;4.50;;;;;;;6.27;73.43;100677.19;4872713;29;20495;-94
2023/03/17 04:38:39;;;;;;;9.23;4.28;;;;;;;6.26;73.64;100663.38;4874262;29;20158;-95
2023/03/17 04:41:04;;;;;;;10.23;4.18;;;;;;;6.29;73.27;100672.97;4885414;29;20058;-94
2023/03/17 04:43:35;;;;;;;9.45;4.47;;;;;;;6.29;72.59;100678.16;4872199;29;20037;-94
2023/03/17 04:46:01;;;;;;;8.40;4.47;;;;;;;6.30;72.58;100684.19;4881734;29;20024;-95
2023/03/17 04:48:30;;;;;;;10.48;4.82;;;;;;;6.31;73.38;100683.38;4873962;29;20439;-93
2023/03/17 04:50:58;;;;;;;10.18;4.82;;;;;;;6.34;73.17;100680.91;4868289;29;20116;-92
2023/03/17 04:53:23;;;;;;;10.23;5.00;;;;;;;6.32;73.28;100670.50;4870215;29;20021;-93
2023/03/17 04:55:49;;;;;;;13.20;4.95;;;;;;;6.32;73.14;100669.63;4875141;29;20051;-94
2023/03/17 04:58:17;;;;;;;10.77;5.13;;;;;;;6.34;73.14;100675.72;4876560;29;20471;-93
2023/03/17 05:00:51;;;;;;;9.95;5.18;;;;;;;6.34;73.31;100670.56;4889790;29;20487;-93
2023/03/17 05:03:17;;;;;;;9.70;5.20;;;;;;;6.35;73.13;100674.91;4886732;29;20101;-93
2023/03/17 05:05:46;;;;;;;11.75;4.90;;;;;;;6.35;73.46;100660.25;4876629;29;20028;-93
2023/03/17 05:08:11;;;;;;;13.18;5.00;;;;;;;6.36;73.02;100658.56;4869493;29;20036;-93
2023/03/17 05:10:45;;;;;;;9.63;4.50;;;;;;;6.36;73.14;100654.28;4876046;29;20546;-94
2023/03/17 05:13:10;;;;;;;10.88;4.63;;;;;;;6.37;73.58;100648.28;4870050;29;20305;-93
2023/03/17 05:15:38;;;;;;;10.05;4.35;;;;;;;6.39;72.77;100648.34;4891025;29;20341;-93
2023/03/17 05:18:04;;;;;;;7.85;4.35;;;;;;;6.39;73.26;100644.03;4874219;29;20033;-93
2023/03/17 05:20:45;;;;;;;9.55;4.13;;;;;;;6.41;72.87;100647.53;4892031;29;20043;-94
2023/03/17 05:23:14;;;;;;;7.38;4.10;;;;;;;6.43;73.19;100653.69;4875075;29;20036;-93
2023/03/17 05:25:40;;;;;;;7.68;3.55;;;;;;;6.44;73.15;100658.03;4875946;29;20458;-93
2023/03/17 05:28:09;;;;;;;7.03;3.85;;;;;;;6.46;73.30;100659.78;4874447;29;20042;-93
2023/03/17 05:30:40;;;;;;;10.73;4.50;;;;;;;6.45;73.02;100669.25;4891731;29;20043;-93
2023/03/17 05:33:11;;;;;;;7.70;3.90;;;;;;;6.46;73.39;100670.13;4891315;29;20040;-93
2023/03/17 05:35:39;;;;;;;9.30;4.60;;;;;;;6.47;73.20;100666.72;4874747;29;20044;-93
2023/03/17 05:38:11;;;;;;;11.43;5.05;;;;;;;6.46;73.23;100672.72;4892086;29;20028;-93
2023/03/17 05:40:44;;;;;;;10.95;5.22;;;;;;;6.48;72.78;100671.09;4890991;29;20037;-94
2023/03/17 05:43:09;;;;;;;9.75;4.90;;;;;;;6.51;72.82;100678.97;4865664;29;20108;-93
2023/03/17 05:45:35;;;;;;;10.60;4.68;;;;;;;6.51;72.42;100671.19;4873381;29;20119;-93
2023/03/17 05:48:02;;;;;;;10.45;4.95;;;;;;;6.52;73.10;100665.22;4874147;29;20180;-93
2023/03/17 05:50:36;;;;;;;9.15;4.53;;;;;;;6.50;73.24;100662.53;4891221;29;20024;-93
2023/03/17 05:53:02;;;;;;;11.43;5.07;;;;;;;6.50;73.66;100659.06;4874895;29;20036;-93
2023/03/17 05:55:32;;;;;;;11.10;4.80;;;;;;;6.50;73.15;100661.66;4888801;29;20060;-93
2023/03/17 05:57:59;;;;;;;11.93;4.75;;;;;;;6.49;73.29;100672.81;4874082;29;20494;-94
2023/03/17 06:00:34;;;;;;;9.25;4.43;;;;;;;6.43;73.76;100666.63;4874215;29;20036;-94
2023/03/17 06:03:03;;;;;;;8.98;4.75;;;;;;;6.37;73.99;100662.91;4875653;29;20036;-94
2023/03/17 06:05:31;;;;;;;12.40;5.40;;;;;;;6.34;73.68;100655.91;4891065;29;20036;-94
2023/03/17 06:07:56;;;;;;;12.88;5.97;;;;;;;6.35;74.13;100662.84;4875044;29;20076;-95
2023/03/17 06:10:26;;;;;;;10.27;5.20;;;;;;;6.35;74.33;100664.56;4891235;29;20037;-95
2023/03/17 06:12:57;;;;;;;;;;;;;;;6.41;73.11;100663.06;4875513;29;20089;-95
2023/03/17 06:15:26;;;;;;;10.75;5.03;;;;;;;6.39;74.08;100664.72;4888352;29;19923;-94
2023/03/17 06:17:58;;;;;;;8.25;4.35;;;;;;;6.37;73.67;100665.50;4874779;29;20039;-95
2023/03/17 06:20:26;;;;;;;8.52;4.15;;;;;;;6.38;74.17;100672.44;4874637;29;20066;-95
2023/03/17 06:22:54;;;;;;;12.15;4.82;;;;;;;6.37;73.81;100668.97;4873662;29;20025;-95
2023/03/17 06:25:19;;;;;;;8.75;4.30;;;;;;;6.37;74.22;100671.56;4874824;29;20035;-93
2023/03/17 06:27:44;;;;;;;11.23;4.88;;;;;;;6.38;74.47;100670.72;4875180;29;20032;-95
2023/03/17 06:30:11;;;;;;;10.68;4.60;;;;;;;6.39;74.30;100666.44;4874154;29;20497;-95
2023/03/17 06:32:39;;;;;;;12.57;5.00;;;;;;;6.39;74.94;100672.50;4874209;29;20123;-95
2023/03/17 06:35:06;;;;;;;10.77;4.75;;;;;;;6.40;74.94;100665.59;4890942;29;20040;-95
2023/03/17 06:37:34;;;;;;;13.95;5.53;;;;;;;6.46;75.17;100673.63;4874872;29;20032;-95
2023/03/17 06:40:00;;;;;;;11.60;5.30;;;;;;;6.51;74.50;100676.38;4874602;29;20036;-94
2023/03/17 06:42:25;;;;;;;13.68;5.07;;;;;;;6.56;74.06;100673.13;4873580;29;20083;-95
2023/03/17 06:44:51;;;;;;;13.38;5.25;;;;;;;6.61;74.85;100668.13;4889552;29;20135;-94
2023/03/17 06:47:19;;;;;;;12.23;5.80;;;;;;;6.66;74.06;100658.78;4874393;29;20176;-95
2023/03/17 06:49:45;;;;;;;12.27;5.63;;;;;;;6.71;74.80;100666.75;4890337;29;20083;-95
2023/03/17 06:52:13;;;;;;;12.20;5.65;;;;;;;6.75;75.04;100669.50;4890908;29;20024;-94
2023/03/17 06:54:40;;;;;;;11.00;5.35;;;;;;;6.78;75.19;100666.16;4874159;29;20038;-95
2023/03/17 06:57:08;;;;;;;13.73;5.40;;;;;;;6.83;74.83;100674.09;4874234;29;20146;-95
2023/03/17 06:59:34;;;;;;;13.30;4.88;;;;;;;6.89;74.65;100671.69;4874631;29;20475;-94
2023/03/17 07:02:02;;;;;;;12.05;5.18;;;;;;;6.96;74.15;100663.31;4874883;29;20037;-95
2023/03/17 07:04:37;;;;;;;10.18;4.90;;;;;;;7.03;74.14;100674.78;4874423;29;20028;-95
2023/03/17 07:07:05;;;;;;;13.75;5.40;;;;;;;7.10;74.31;100674.19;4874354;29;20039;-94
2023/03/17 07:09:34;;;;;;;9.85;4.47;;;;;;;7.18;73.73;100677.03;4874600;29;20032;-94
2023/03/17 07:12:04;;;;;;;10.25;5.15;;;;;;;7.24;74.08;100674.63;4890082;29;20047;-94
2023/03/17 07:14:36;;;;;;;12.00;5.32;;;;;;;7.29;73.85;100673.09;4873611;29;20035;-94
2023/03/17 07:17:03;;;;;;;13.68;5.60;;;;;;;7.35;73.92;100668.13;4873330;29;20036;-93
2023/03/17 07:19:35;;;;;;;10.35;4.90;;;;;;;7.42;73.57;100669.22;4872640;29;20040;-94
2023/03/17 07:22:00;;;;;;;11.68;5.10;;;;;;;7.49;73.71;100671.19;4872622;29;20040;-94
2023/03/17 07:24:25;;;;;;;12.65;5.13;;;;;;;7.56;74.03;100672.25;4873616;29;20100;-93
2023/03/17 07:26:51;;;;;;;9.23;4.53;;;;;;;7.63;73.57;100682.00;4873171;29;20111;-94
2023/03/17 07:29:20;;;;;;;11.52;4.90;;;;;;;7.69;73.39;100666.66;4873775;29;20028;-94
2023/03/17 07:31:58;;;;;;;14.23;4.60;;;;;;;7.77;71.73;100661.72;4891019;29;20506;-92
2023/03/17 07:34:24;;;;;;;12.80;4.78;;;;;;;7.88;72.39;100659.44;4890366;29;20083;-94
2023/03/17 07:36:49;;;;;;;9.52;4.40;;;;;;;7.98;72.24;100667.56;4888464;29;20029;-96
2023/03/17 07:39:14;;;;;;;11.07;4.40;;;;;;;8.08;72.36;100654.88;4869656;29;20059;-94
2023/03/17 07:41:43;;;;;;;10.45;4.53;;;;;;;8.15;72.42;100659.41;4874621;29;20043;-96
2023/03/17 07:44:29;;;;;;;13.20;4.72;;;;;;;8.22;70.52;100661.38;4873318;29;20028;-94
2023/03/17 07:47:03;;;;;;;11.35;4.45;;;;;;;8.31;72.19;100652.97;4874092;29;20924;-95
2023/03/17 07:49:29;;;;;;;11.32;4.30;;;;;;;8.39;70.48;100658.41;4872143;29;20029;-94
2023/03/17 07:51:54;;;;;;;11.15;4.18;;;;;;;8.45;69.56;100656.00;4889480;29;20029;-95
2023/03/17 07:54:20;;;;;;;10.98;4.05;;;;;;;8.49;70.56;100656.16;4873161;29;20061;-94
2023/03/17 07:56:48;;;;;;;15.65;4.68;;;;;;;8.57;69.07;100658.09;4871921;29;20412;-95
2023/03/17 07:59:17;;;;;;;10.90;4.53;;;;;;;8.63;70.25;100653.97;4874049;29;20115;-94
2023/03/17 08:01:42;;;;;;;13.13;4.30;;;;;;;8.70;69.52;100662.78;4876155;29;20035;-94
2023/03/17 08:04:12;;;;;;;9.70;3.97;;;;;;;8.80;68.55;100682.97;4872644;29;20602;-94
2023/03/17 08:06:44;;;;;;;8.60;3.80;;;;;;;8.85;67.57;100684.00;4892114;29;20033;-95
2023/03/17 08:09:13;;;;;;;8.05;4.18;;;;;;;8.93;67.32;100663.41;4877204;29;20679;-95
2023/03/17 08:11:40;;;;;;;7.97;4.05;;;;;;;8.98;69.52;100666.13;4875134;29;20494;-94
2023/03/17 08:14:06;;;;;;;7.38;3.72;;;;;;;9.04;67.70;100654.19;4874694;29;20048;-94
2023/03/17 08:16:35;;;;;;;7.55;3.67;;;;;;;9.08;67.82;100649.97;4874495;29;20032;-94
2023/03/17 08:19:02;;;;;;;11.30;4.30;;;;;;;9.17;67.06;100665.81;4890324;29;20029;-93
2023/03/17 08:21:30;;;;;;;9.77;4.07;;;;;;;9.23;67.64;100665.97;4873909;29;20036;-93
2023/03/17 08:23:58;;;;;;;9.95;4.00;;;;;;;9.32;66.10;100669.66;4873860;29;20066;-94
2023/03/17 08:26:27;;;;;;;8.43;4.05;;;;;;;9.39;67.57;100668.97;4873751;29;20032;-94
2023/03/17 08:29:03;;;;;;;10.57;4.00;;;;;;;9.46;65.97;100670.88;4877933;29;20024;-93
2023/03/17 08:31:32;;;;;;;9.25;3.85;;;;;;;9.56;67.18;100672.00;4877049;29;20287;-94
2023/03/17 08:34:02;;;;;;;11.23;3.92;;;;;;;9.64;66.88;100662.63;4879738;29;20068;-94
2023/03/17 08:36:30;;;;;;;9.40;3.97;;;;;;;9.72;67.00;100660.25;4876638;29;20035;-93
2023/03/17 08:38:55;;;;;;;8.52;4.18;;;;;;;9.78;65.26;100657.78;4878702;29;20111;-95
2023/03/17 08:41:26;;;;;;;10.35;4.40;;;;;;;9.83;65.30;100644.88;4892568;29;20772;-94
2023/03/17 08:43:55;;;;;;;11.15;5.10;;;;;;;9.90;65.33;100647.66;4893053;29;20129;-96
2023/03/17 08:46:28;;;;;;;10.68;4.43;;;;;;;9.96;65.34;100636.50;4877539;29;20742;-95
2023/03/17 08:49:00;;;;;;;11.52;4.63;;;;;;;10.00;65.56;100633.13;4875171;29;20092;-94
2023/03/17 08:51:34;;;;;;;11.45;4.68;;;;;;;10.05;65.41;100641.94;4876013;29;20550;-95
2023/03/17 08:54:04;;;;;;;9.38;4.32;;;;;;;10.13;65.36;100660.31;4876415;29;20028;-96
2023/03/17 08:56:33;;;;;;;10.55;4.53;;;;;;;10.21;63.62;100666.56;4891517;29;20041;-95
2023/03/17 08:58:59;;;;;;;11.80;5.03;;;;;;;10.32;65.04;100665.94;4877163;29;20044;-94
2023/03/17 09:01:27;;;;;;;8.77;4.53;;;;;;;10.41;65.82;100658.34;4876676;29;20021;-94
2023/03/17 09:03:56;;;;;;;10.40;4.00;;;;;;;10.53;64.82;100653.41;4875365;29;20527;-95
2023/03/17 09:06:22;;;;;;;10.05;4.53;;;;;;;10.64;65.83;100647.53;4890993;29;20029;-94
2023/03/17 09:08:54;;;;;;;8.60;4.20;;;;;;;10.73;64.75;100658.13;4892568;29;20370;-93
2023/03/17 09:11:43;;;;;;;;;;;;;;;;;;;;;
2023/03/17 09:14:13;;;;;;;8.02;4.57;;;;;;;10.87;63.96;100646.22;4909711;29;20392;-96
2023/03/17 09:16:48;;;;;;;7.80;4.50;;;;;;;10.93;64.76;100648.97;4877124;29;20475;-95
2023/03/17 09:19:23;;;;;;;11.60;4.32;;;;;;;10.99;64.89;100655.16;4891114;29;20028;-95
2023/03/17 09:21:50;;;;;;;8.50;4.60;;;;;;;11.00;64.14;100642.13;4876270;29;20483;-95
2023/03/17 09:24:17;;;;;;;8.63;4.28;;;;;;;11.03;63.91;100642.19;4874847;29;20119;-95
2023/03/17 09:26:45;;;;;;;8.38;3.95;;;;;;;11.07;65.06;100649.22;4874640;29;20448;-94
2023/03/17 09:29:16;;;;;;;9.55;4.30;;;;;;;11.17;63.73;100657.22;4874970;29;20107;-95
2023/03/17 09:31:57;;;;;;;7.53;3.80;;;;;;;11.24;63.43;100657.34;4890239;29;20440;-94
2023/03/17 09:34:38;;;;;;;;;;;;;;;;;;;;;
2023/03/17 09:37:04;;;;;;;9.93;4.20;;;;;;;11.45;65.22;100637.69;4890982;29;20029;-95
2023/03/17 09:39:40;;;;;;;8.88;4.13;;;;;;;11.52;61.77;100628.25;4875756;29;20029;-96
2023/03/17 09:42:21;;;;;;;11.90;4.40;;;;;;;11.57;63.51;100630.09;4893826;29;20482;-96
2023/03/17 09:45:12;;;;;;;11.90;5.35;;;;;;;11.63;63.11;100635.41;4876746;29;20040;-96
2023/03/17 09:47:59;;;;;;;8.90;4.38;;;;;;;11.68;63.32;100629.38;4873846;29;20044;-95
2023/03/17 09:50:33;;;;;;;6.97;4.10;;;;;;;11.71;62.24;100637.25;4890741;29;20032;-95
2023/03/17 09:53:03;;;;;;;8.23;4.25;;;;;;;11.74;63.14;100635.53;4873203;29;20028;-96
2023/03/17 09:55:36;;;;;;;8.82;4.05;;;;;;;11.78;62.53;100631.28;4874861;29;20045;-96
2023/03/17 09:58:03;;;;;;;10.02;4.45;;;;;;;11.81;63.20;100631.31;4891573;29;20444;-96
2023/03/17 10:00:39;;;;;;;12.63;4.43;;;;;;;11.87;63.28;100648.81;4875454;29;20059;-96
2023/03/17 10:03:09;;;;;;;9.88;4.40;;;;;;;11.89;62.04;100652.31;4874753;29;20079;-96
2023/03/17 10:05:38;;;;;;;10.35;4.35;;;;;;;11.88;63.21;100661.88;4875130;29;20229;-96
2023/03/17 10:08:24;;;;;;;;;;;;;;;11.96;64.40;100672.47;4876066;29;20040;-96
2023/03/17 10:11:09;;;;;;;8.77;4.35;;;;;;;11.95;62.97;100658.53;4869712;29;19915;-96
2023/03/17 10:14:08;;;;;;;7.65;4.13;;;;;;;11.94;63.43;100651.56;4891189;29;20024;-96
2023/03/17 10:16:45;;;;;;;10.48;4.15;;;;;;;11.97;63.96;100667.25;4874881;29;20041;-94
2023/03/17 10:19:31;;;;;;;8.65;4.38;;;;;;;11.99;63.82;100675.13;4875160;29;20075;-96
2023/03/17 10:22:34;;;;;;;9.63;4.40;;;;;;;12.01;64.54;100691.69;4875678;29;20601;-96
2023/03/17 10:25:18;;;;;;;8.77;4.53;;;;;;;12.04;64.46;100678.69;4864200;29;20036;-96
2023/03/17 10:27:51;;;;;;;10.27;4.30;;;;;;;12.09;64.08;100681.38;4874162;29;20056;-95
2023/03/17 10:30:20;;;;;;;9.70;5.15;;;;;;;12.17;65.09;100695.41;4875047;29;20075;-96
2023/03/17 10:32:51;;;;;;;8.40;4.70;;;;;;;12.27;66.13;100689.47;4874604;29;20168;-96
2023/03/17 10:35:17;;;;;;;8.25;4.63;;;;;;;12.40;65.64;100687.00;4874764;29;20395;-95
2023/03/17 10:37:57;;;;;;;8.45;4.72;;;;;;;12.51;65.64;100680.19;4874148;29;20466;-96
2023/03/17 10:40:30;;;;;;;;;;;;;;;12.61;66.13;100687.28;4892061;29;20032;-96
2023/03/17 10:43:07;;;;;;;9.88;4.70;;;;;;;12.70;65.99;100686.53;4875328;29;20356;-96
2023/03/17 10:45:41;;;;;;;9.85;5.00;;;;;;;12.81;64.82;100663.13;4874712;29;20108;-96
2023/03/17 10:48:19;;;;;;;10.18;5.75;;;;;;;13.02;66.48;100671.22;4891004;29;20059;-96
2023/03/17 10:50:47;;;;;;;9.20;5.10;;;;;;;13.26;64.96;100669.72;4875145;29;20024;-96
2023/03/17 10:53:26;;;;;;;7.03;5.00;;;;;;;13.46;64.33;100672.56;4874803;29;20518;-96
2023/03/17 10:56:05;;;;;;;8.00;4.97;;;;;;;13.64;64.35;100673.56;4889876;29;20044;-96
2023/03/17 10:58:40;;;;;;;7.25;4.55;;;;;;;13.83;63.88;100669.34;4874421;29;20033;-96
2023/03/17 11:01:29;;;;;;;9.65;4.57;;;;;;;13.99;64.77;100667.72;4890220;29;20130;-96
2023/03/17 11:04:01;;;;;;;10.32;4.90;;;;;;;14.06;63.02;100659.03;4874494;29;20021;-96
2023/03/17 11:06:40;;;;;;;7.95;4.53;;;;;;;14.11;63.83;100653.81;4892344;29;20033;-96
2023/03/17 11:09:20;;;;;;;8.68;4.85;;;;;;;14.14;61.49;100652.09;4902951;29;20019;-96
2023/03/17 11:12:00;;;;;;;7.70;4.43;;;;;;;14.17;62.71;100651.25;4885962;29;20483;-96
2023/03/17 11:14:27;;;;;;;9.73;4.43;;;;;;;14.30;64.69;100652.19;4881472;29;20044;-96
2023/03/17 11:16:56;;;;;;;10.10;4.80;;;;;;;14.51;63.61;100654.03;4890142;29;20049;-94
2023/03/17 11:19:49;;;;;;;9.63;5.07;;;;;;;14.69;62.66;100641.03;4894768;29;20033;-95
2023/03/17 11:22:48;;;;;;;8.27;5.05;;;;;;;14.86;63.01;100632.31;4872983;29;20036;-96
2023/03/17 11:25:18;;;;;;;8.65;4.65;;;;;;;14.98;59.91;100629.72;4867976;29;20033;-96
2023/03/17 11:28:11;;;;;;;8.05;4.45;;;;;;;15.10;62.28;100624.50;4875786;29;20040;-96
2023/03/17 11:30:51;;;;;;;8.23;4.68;;;;;;;15.18;60.10;100631.50;4871685;29;20036;-96
2023/03/17 11:33:34;;;;;;;9.05;4.43;;;;;;;15.24;60.12;100636.78;4877132;29;20029;-94
2023/03/17 11:36:19;;;;;;;9.57;5.07;;;;;;;15.32;59.26;100639.41;4876163;29;20036;-96
2023/03/17 11:39:04;;;;;;;7.60;4.63;;;;;;;15.43;60.28;100633.28;4874140;29;20032;-96
2023/03/17 11:42:05;;;;;;;10.10;5.18;;;;;;;15.62;60.63;100642.03;4876187;29;20204;-96
2023/03/17 11:45:00;;;;;;;7.30;4.65;;;;;;;15.79;59.41;100651.69;4874103;29;20039;-94
2023/03/17 11:47:49;;;;;;;10.15;4.88;;;;;;;16.00;58.90;100640.25;4874388;29;20699;-96
2023/03/17 11:50:36;;;;;;;8.48;5.20;;;;;;;16.09;58.58;100640.25;4887224;29;20091;-96